createdAt,value
2018-11-26T00:00:17.890Z,17.93
2018-11-26T00:02:46.363Z,16.03
2018-11-26T00:05:14.785Z,15.20
2018-11-26T00:07:43.138Z,15.77
2018-11-26T00:10:22.632Z,15.73
2018-11-26T00:12:50.963Z,16.00
2018-11-26T00:15:19.514Z,15.40
2018-11-26T00:17:47.820Z,16.90
2018-11-26T00:20:16.175Z,14.93
2018-11-26T00:22:44.512Z,14.90
2018-11-26T00:25:12.897Z,13.93
2018-11-26T00:27:41.183Z,15.20
2018-11-26T00:30:09.481Z,14.60
2018-11-26T00:32:38.475Z,14.40
2018-11-26T00:35:07.586Z,13.63
2018-11-26T00:37:35.954Z,14.77
2018-11-26T00:40:04.524Z,15.33
2018-11-26T00:42:33.582Z,14.13
2018-11-26T00:45:01.980Z,14.03
2018-11-26T00:47:30.335Z,12.80
2018-11-26T00:49:59.611Z,14.47
2018-11-26T00:52:27.949Z,14.27
2018-11-26T00:54:56.294Z,14.70
2018-11-26T00:57:25.567Z,13.40
2018-11-26T00:59:54.039Z,13.97
2018-11-26T01:02:22.541Z,11.70
2018-11-26T01:04:50.982Z,12.87
2018-11-26T01:07:19.483Z,12.77
2018-11-26T01:09:47.822Z,12.03
2018-11-26T01:12:16.188Z,11.87
2018-11-26T01:14:44.533Z,12.23
2018-11-26T01:17:12.895Z,12.00
2018-11-26T01:19:41.289Z,12.70
2018-11-26T01:22:09.620Z,12.63
2018-11-26T01:24:37.938Z,12.50
2018-11-26T01:27:06.232Z,12.17
2018-11-26T01:29:34.565Z,13.10
2018-11-26T01:32:02.884Z,12.73
2018-11-26T01:34:31.226Z,13.17
2018-11-26T01:36:59.549Z,12.50
2018-11-26T01:39:27.852Z,12.00
2018-11-26T01:41:56.189Z,12.90
2018-11-26T01:44:24.591Z,12.10
2018-11-26T01:46:52.998Z,11.63
2018-11-26T01:49:21.349Z,11.77
2018-11-26T01:51:49.684Z,11.30
2018-11-26T01:54:18.030Z,10.70
2018-11-26T01:56:46.387Z,12.97
2018-11-26T01:59:15.484Z,12.40
2018-11-26T02:01:44.062Z,12.17
2018-11-26T02:04:12.354Z,11.93
2018-11-26T02:06:40.716Z,11.90
2018-11-26T02:09:09.074Z,10.53
2018-11-26T02:11:37.534Z,12.57
2018-11-26T02:14:06.602Z,10.83
2018-11-26T02:16:34.938Z,12.30
2018-11-26T02:19:03.289Z,12.13
2018-11-26T02:21:31.576Z,11.97
2018-11-26T02:23:59.895Z,12.43
2018-11-26T02:26:28.304Z,11.93
2018-11-26T02:28:56.643Z,12.10
2018-11-26T02:31:24.989Z,12.53
2018-11-26T02:33:53.306Z,13.47
2018-11-26T02:36:21.602Z,12.10
2018-11-26T02:38:49.945Z,12.60
2018-11-26T02:41:19.075Z,12.13
2018-11-26T02:43:47.461Z,13.10
2018-11-26T02:46:15.805Z,12.40
2018-11-26T02:48:44.165Z,12.80
2018-11-26T02:51:12.474Z,12.70
2018-11-26T02:53:41.350Z,11.50
2018-11-26T02:56:10.202Z,10.27
2018-11-26T02:58:39.014Z,13.33
2018-11-26T03:01:07.502Z,13.67
2018-11-26T03:03:35.837Z,12.80
2018-11-26T03:06:04.195Z,12.80
2018-11-26T03:08:33.761Z,11.67
2018-11-26T03:11:02.107Z,12.73
2018-11-26T03:13:30.425Z,12.47
2018-11-26T03:15:58.800Z,11.37
2018-11-26T03:18:27.122Z,12.10
2018-11-26T03:20:55.447Z,12.37
2018-11-26T03:23:24.667Z,12.87
2018-11-26T03:25:53.079Z,12.40
2018-11-26T03:28:21.396Z,12.23
2018-11-26T03:30:49.793Z,13.10
2018-11-26T03:33:18.112Z,12.80
2018-11-26T03:35:46.443Z,12.60
2018-11-26T03:38:16.405Z,12.97
2018-11-26T03:40:44.748Z,11.67
2018-11-26T03:43:13.077Z,10.43
2018-11-26T03:45:41.375Z,11.10
2018-11-26T03:48:09.675Z,12.00
2018-11-26T03:50:38.013Z,12.67
2018-11-26T03:53:06.874Z,12.00
2018-11-26T03:55:35.190Z,10.30
2018-11-26T03:58:03.506Z,15.07
2018-11-26T04:00:31.857Z,11.90
2018-11-26T04:03:00.169Z,12.87
2018-11-26T04:05:30.341Z,11.10
2018-11-26T04:07:58.686Z,12.83
2018-11-26T04:10:27.026Z,13.43
2018-11-26T04:12:55.423Z,11.93
2018-11-26T04:15:23.767Z,12.70
2018-11-26T04:17:52.097Z,12.83
2018-11-26T04:20:20.430Z,10.93
2018-11-26T04:22:48.801Z,12.63
2018-11-26T04:25:17.130Z,13.07
2018-11-26T04:27:45.446Z,13.50
2018-11-26T04:30:13.822Z,12.83
2018-11-26T04:32:42.294Z,11.10
2018-11-26T04:35:10.769Z,11.40
2018-11-26T04:37:40.036Z,10.10
2018-11-26T04:40:09.720Z,11.00
2018-11-26T04:42:38.150Z,11.60
2018-11-26T04:45:07.937Z,11.47
2018-11-26T04:47:37.134Z,11.30
2018-11-26T04:50:07.457Z,10.67
2018-11-26T04:52:35.827Z,12.53
2018-11-26T04:55:04.163Z,11.13
2018-11-26T04:57:32.512Z,11.17
2018-11-26T05:00:00.829Z,11.90
2018-11-26T05:02:29.163Z,13.03
2018-11-26T05:04:57.464Z,10.33
2018-11-26T05:07:25.800Z,11.90
2018-11-26T05:09:54.170Z,11.20
2018-11-26T05:12:22.581Z,10.73
2018-11-26T05:14:50.902Z,10.00
2018-11-26T05:17:19.567Z,11.37
2018-11-26T05:19:47.960Z,11.27
2018-11-26T05:22:16.338Z,12.43
2018-11-26T05:24:44.721Z,10.90
2018-11-26T05:27:13.096Z,10.37
2018-11-26T05:29:41.471Z,11.00
2018-11-26T05:32:09.833Z,10.77
2018-11-26T05:34:38.271Z,11.43
2018-11-26T05:37:06.948Z,11.50
2018-11-26T05:39:35.438Z,10.60
2018-11-26T05:42:03.935Z,12.20
2018-11-26T05:44:32.394Z,12.53
2018-11-26T05:47:00.778Z,12.90
2018-11-26T05:49:29.261Z,12.17
2018-11-26T05:51:58.010Z,12.77
2018-11-26T05:54:26.493Z,13.47
2018-11-26T05:56:54.847Z,12.73
2018-11-26T05:59:23.199Z,13.00
2018-11-26T06:01:51.554Z,12.20
2018-11-26T06:04:19.934Z,12.20
2018-11-26T06:06:48.261Z,13.10
2018-11-26T06:09:16.548Z,12.10
2018-11-26T06:11:45.054Z,12.30
2018-11-26T06:14:13.373Z,12.40
2018-11-26T06:16:41.681Z,11.77
2018-11-26T06:19:10.051Z,11.23
2018-11-26T06:21:38.386Z,12.60
2018-11-26T06:24:06.739Z,14.03
2018-11-26T06:26:35.052Z,12.77
2018-11-26T06:29:03.378Z,12.43
2018-11-26T06:31:31.689Z,13.33
2018-11-26T06:34:00.147Z,11.43
2018-11-26T06:36:28.514Z,14.03
2018-11-26T06:38:56.793Z,14.97
2018-11-26T06:41:25.150Z,15.10
2018-11-26T06:43:53.438Z,14.73
2018-11-26T06:46:21.778Z,15.50
2018-11-26T06:48:50.120Z,14.77
2018-11-26T06:51:18.435Z,13.90
2018-11-26T06:53:46.819Z,13.10
2018-11-26T06:56:15.139Z,13.50
2018-11-26T06:58:43.465Z,15.40
2018-11-26T07:01:11.906Z,14.93
2018-11-26T07:03:40.200Z,12.90
2018-11-26T07:06:08.527Z,12.83
2018-11-26T07:08:36.905Z,13.10
2018-11-26T07:11:05.722Z,13.60
2018-11-26T07:13:34.065Z,13.20
2018-11-26T07:16:02.404Z,11.70
2018-11-26T07:18:30.751Z,13.87
2018-11-26T07:21:00.730Z,13.20
2018-11-26T07:23:29.112Z,13.10
2018-11-26T07:25:57.542Z,13.83
2018-11-26T07:28:25.883Z,13.50
2018-11-26T07:30:54.217Z,13.63
2018-11-26T07:33:22.564Z,12.60
2018-11-26T07:35:50.891Z,13.10
2018-11-26T07:38:19.279Z,14.43
2018-11-26T07:40:47.656Z,13.17
2018-11-26T07:43:16.049Z,13.53
2018-11-26T07:45:45.153Z,12.30
2018-11-26T07:48:13.462Z,13.37
2018-11-26T07:50:41.901Z,10.97
2018-11-26T07:53:11.035Z,12.97
2018-11-26T07:55:40.287Z,12.07
2018-11-26T07:58:08.642Z,12.03
2018-11-26T08:00:37.043Z,10.83
2018-11-26T08:03:05.653Z,12.03
2018-11-26T08:05:33.971Z,12.20
2018-11-26T08:08:02.339Z,14.60
2018-11-26T08:10:30.649Z,13.20
2018-11-26T08:12:59.015Z,14.70
2018-11-26T08:15:28.263Z,13.00
2018-11-26T08:17:56.601Z,13.67
2018-11-26T08:20:24.899Z,13.77
2018-11-26T08:22:53.248Z,14.60
2018-11-26T08:25:22.500Z,14.13
2018-11-26T08:27:51.126Z,13.23
2018-11-26T08:30:21.570Z,14.10
2018-11-26T08:32:51.032Z,14.80
2018-11-26T08:35:19.438Z,13.20
2018-11-26T08:37:53.413Z,15.70
2018-11-26T08:40:27.645Z,14.13
2018-11-26T08:42:58.267Z,13.60
2018-11-26T08:45:29.870Z,14.37
2018-11-26T08:48:29.457Z,11.47
2018-11-26T08:50:59.683Z,11.93
2018-11-26T08:53:28.059Z,10.70
2018-11-26T08:55:56.425Z,10.07
2018-11-26T08:58:25.962Z,12.33
2018-11-26T09:01:00.019Z,10.83
2018-11-26T09:03:34.573Z,11.17
2018-11-26T09:06:03.629Z,10.93
2018-11-26T09:08:32.950Z,11.00
2018-11-26T09:11:02.032Z,11.40
2018-11-26T09:13:30.941Z,10.33
2018-11-26T09:15:59.249Z,10.57
2018-11-26T09:18:28.247Z,10.33
2018-11-26T09:20:56.579Z,9.50
2018-11-26T09:23:24.949Z,9.20
2018-11-26T09:25:53.351Z,10.00
2018-11-26T09:28:21.698Z,7.93
2018-11-26T09:30:50.096Z,9.13
2018-11-26T09:33:18.581Z,7.63
2018-11-26T09:35:47.014Z,9.97
2018-11-26T09:38:16.313Z,8.03
2018-11-26T09:40:44.655Z,7.80
2018-11-26T09:43:12.999Z,8.03
2018-11-26T09:45:41.366Z,8.77
2018-11-26T09:48:09.782Z,9.17
2018-11-26T09:50:38.182Z,8.77
2018-11-26T09:53:06.748Z,8.20
2018-11-26T09:55:35.134Z,8.47
2018-11-26T09:58:03.509Z,7.70
2018-11-26T10:00:31.914Z,9.10
2018-11-26T10:03:00.367Z,8.63
2018-11-26T10:05:28.751Z,8.27
2018-11-26T10:07:57.126Z,8.00
2018-11-26T10:10:25.411Z,9.33
2018-11-26T10:12:53.748Z,8.50
2018-11-26T10:15:23.199Z,8.33
2018-11-26T10:17:51.743Z,8.63
2018-11-26T10:20:20.120Z,8.17
2018-11-26T10:22:49.217Z,8.63
2018-11-26T10:25:18.748Z,7.70
2018-11-26T10:27:47.098Z,8.43
2018-11-26T10:30:16.637Z,7.70
2018-11-26T10:32:45.612Z,11.90
2018-11-26T10:35:14.952Z,12.70
2018-11-26T10:37:43.363Z,13.53
2018-11-26T10:40:19.814Z,13.63
2018-11-26T10:42:48.271Z,15.27
2018-11-26T10:45:17.763Z,15.03
2018-11-26T10:47:46.254Z,14.13
2018-11-26T10:50:15.618Z,14.93
2018-11-26T10:52:51.747Z,15.80
2018-11-26T10:55:24.533Z,14.50
2018-11-26T10:57:52.955Z,14.70
2018-11-26T11:00:26.576Z,14.37
2018-11-26T11:02:54.940Z,14.43
2018-11-26T11:05:23.265Z,14.50
2018-11-26T11:07:51.612Z,15.10
2018-11-26T11:10:29.793Z,15.17
2018-11-26T11:12:58.289Z,14.67
2018-11-26T11:15:26.737Z,14.10
2018-11-26T11:17:55.150Z,15.63
2018-11-26T11:20:25.153Z,14.50
2018-11-26T11:22:53.513Z,14.93
2018-11-26T11:25:22.368Z,15.40
2018-11-26T11:27:51.096Z,15.53
2018-11-26T11:30:23.670Z,13.90
2018-11-26T11:32:52.083Z,13.40
2018-11-26T11:35:20.569Z,14.70
2018-11-26T11:37:49.797Z,15.27
2018-11-26T11:40:27.026Z,14.10
2018-11-26T11:42:55.704Z,14.40
2018-11-26T11:45:24.391Z,14.23
2018-11-26T11:47:52.773Z,12.60
2018-11-26T11:50:21.620Z,13.60
2018-11-26T11:52:50.136Z,13.70
2018-11-26T11:55:21.513Z,12.63
2018-11-26T11:57:50.018Z,13.27
2018-11-26T12:00:50.261Z,13.97
2018-11-26T12:03:19.772Z,12.70
2018-11-26T12:05:48.121Z,13.20
2018-11-26T12:08:16.512Z,11.90
2018-11-26T12:10:44.876Z,13.17
2018-11-26T12:13:15.030Z,13.87
2018-11-26T12:15:47.819Z,11.33
2018-11-26T12:18:16.189Z,12.13
2018-11-26T12:20:44.516Z,12.20
2018-11-26T12:23:12.968Z,12.77
2018-11-26T12:25:41.349Z,12.10
2018-11-26T12:28:09.714Z,11.50
2018-11-26T12:30:40.662Z,12.40
2018-11-26T12:33:09.150Z,12.83
2018-11-26T12:35:37.514Z,11.70
2018-11-26T12:38:05.960Z,13.07
2018-11-26T12:40:34.308Z,11.70
2018-11-26T12:43:03.717Z,12.47
2018-11-26T12:45:33.523Z,10.93
2018-11-26T12:48:02.085Z,12.10
2018-11-26T12:50:30.439Z,12.07
2018-11-26T12:52:58.925Z,11.70
2018-11-26T12:55:27.284Z,12.13
2018-11-26T12:57:56.417Z,10.93
2018-11-26T13:00:26.110Z,12.57
2018-11-26T13:02:57.480Z,11.07
2018-11-26T13:05:25.847Z,10.73
2018-11-26T13:07:54.198Z,11.80
2018-11-26T13:10:24.052Z,11.83
2018-11-26T13:12:52.802Z,11.77
2018-11-26T13:15:23.137Z,11.97
2018-11-26T13:17:51.516Z,10.27
2018-11-26T13:20:22.164Z,11.77
2018-11-26T13:22:51.004Z,12.23
2018-11-26T13:25:22.425Z,11.80
2018-11-26T13:28:03.600Z,12.17
2018-11-26T13:30:34.394Z,10.37
2018-11-26T13:33:05.462Z,11.40
2018-11-26T13:35:33.797Z,11.10
2018-11-26T13:38:02.136Z,10.97
2018-11-26T13:40:30.496Z,9.73
2018-11-26T13:42:58.904Z,10.70
2018-11-26T13:45:30.336Z,11.20
2018-11-26T13:47:58.772Z,12.20
2018-11-26T13:50:29.774Z,11.53
2018-11-26T13:52:58.211Z,11.37
2018-11-26T13:55:26.522Z,10.77
2018-11-26T13:57:54.870Z,10.80
2018-11-26T14:00:23.192Z,10.90
2018-11-26T14:02:51.546Z,11.37
2018-11-26T14:05:20.356Z,11.57
2018-11-26T14:07:49.540Z,11.23
2018-11-26T14:10:22.226Z,10.40
2018-11-26T14:12:53.924Z,11.17
2018-11-26T14:15:22.339Z,11.43
2018-11-26T14:17:50.676Z,10.80
2018-11-26T14:20:21.765Z,10.97
2018-11-26T14:22:50.172Z,10.30
2018-11-26T14:25:19.617Z,10.80
2018-11-26T14:27:48.539Z,11.40
2018-11-26T14:30:19.915Z,11.37
2018-11-26T14:32:49.345Z,11.27
2018-11-26T14:35:17.827Z,10.40
2018-11-26T14:37:47.489Z,11.33
2018-11-26T14:40:23.328Z,10.97
2018-11-26T14:42:51.857Z,10.80
2018-11-26T14:45:20.283Z,11.63
2018-11-26T14:47:48.618Z,9.33
2018-11-26T14:50:19.603Z,10.33
2018-11-26T14:52:48.919Z,10.20
2018-11-26T14:55:20.684Z,9.20
2018-11-26T14:57:49.002Z,10.60
2018-11-26T15:00:18.856Z,9.83
2018-11-26T15:02:48.212Z,10.23
2018-11-26T15:05:16.553Z,11.20
2018-11-26T15:07:45.008Z,9.80
2018-11-26T15:10:15.320Z,11.13
2018-11-26T15:12:44.584Z,10.00
2018-11-26T15:15:14.127Z,11.70
2018-11-26T15:17:43.114Z,11.13
2018-11-26T15:20:13.596Z,12.13
2018-11-26T15:22:41.984Z,10.97
2018-11-26T15:25:12.965Z,12.03
2018-11-26T15:27:41.374Z,11.50
2018-11-26T15:30:15.772Z,11.33
2018-11-26T15:32:44.255Z,10.80
2018-11-26T15:35:14.620Z,10.87
2018-11-26T15:37:43.070Z,11.13
2018-11-26T15:40:12.519Z,10.57
2018-11-26T15:42:41.743Z,11.53
2018-11-26T15:45:13.312Z,11.67
2018-11-26T15:47:41.789Z,10.83
2018-11-26T15:50:10.304Z,12.37
2018-11-26T15:52:39.479Z,11.30
2018-11-26T15:55:10.145Z,10.27
2018-11-26T15:57:38.542Z,11.57
2018-11-26T16:00:26.120Z,12.70
2018-11-26T16:02:54.557Z,12.40
2018-11-26T16:05:25.765Z,11.80
2018-11-26T16:07:55.309Z,12.97
2018-11-26T16:10:23.717Z,13.47
2018-11-26T16:12:53.870Z,11.07
2018-11-26T16:15:27.808Z,13.73
2018-11-26T16:17:58.177Z,11.57
2018-11-26T16:20:27.306Z,12.03
2018-11-26T16:22:57.619Z,12.47
2018-11-26T16:25:26.046Z,13.17
2018-11-26T16:27:55.358Z,13.57
2018-11-26T16:30:23.754Z,13.80
2018-11-26T16:32:53.497Z,12.07
2018-11-26T16:35:24.942Z,11.83
2018-11-26T16:37:53.299Z,13.77
2018-11-26T16:40:21.624Z,13.27
2018-11-26T16:42:49.993Z,12.13
2018-11-26T16:45:20.381Z,11.00
2018-11-26T16:47:49.882Z,14.30
2018-11-26T16:50:19.301Z,14.10
2018-11-26T16:52:47.711Z,13.40
2018-11-26T16:55:16.614Z,13.40
2018-11-26T16:57:45.109Z,13.50
2018-11-26T17:00:16.503Z,12.87
2018-11-26T17:02:45.367Z,12.70
2018-11-26T17:05:15.908Z,12.97
2018-11-26T17:07:44.430Z,13.63
2018-11-26T17:10:12.822Z,14.80
2018-11-26T17:12:41.474Z,13.20
2018-11-26T17:15:13.452Z,12.50
2018-11-26T17:17:41.824Z,13.60
2018-11-26T17:20:11.722Z,13.13
2018-11-26T17:22:40.164Z,16.10
2018-11-26T17:25:11.479Z,29.70
2018-11-26T17:27:40.977Z,19.60
2018-11-26T17:30:27.983Z,17.20
2018-11-26T17:33:02.554Z,16.63
2018-11-26T17:35:31.786Z,22.40
2018-11-26T17:38:00.209Z,23.57
2018-11-26T17:40:35.374Z,16.17
2018-11-26T17:43:03.777Z,14.03
2018-11-26T17:45:32.083Z,14.80
2018-11-26T17:48:00.733Z,14.10
2018-11-26T17:50:32.913Z,14.63
2018-11-26T17:53:01.318Z,12.53
2018-11-26T17:55:29.675Z,14.50
2018-11-26T17:57:58.193Z,14.17
2018-11-26T18:00:29.162Z,18.50
2018-11-26T18:02:57.521Z,15.50
2018-11-26T18:05:27.245Z,16.73
2018-11-26T18:07:59.444Z,15.90
2018-11-26T18:10:27.850Z,16.80
2018-11-26T18:12:56.322Z,14.00
2018-11-26T18:15:24.933Z,14.67
2018-11-26T18:17:59.835Z,14.20
2018-11-26T18:20:28.560Z,13.73
2018-11-26T18:22:56.984Z,13.23
2018-11-26T18:25:25.587Z,16.73
2018-11-26T18:28:11.952Z,17.60
2018-11-26T18:30:42.715Z,21.80
2018-11-26T18:33:11.042Z,19.70
2018-11-26T18:35:40.157Z,22.30
2018-11-26T18:38:08.587Z,20.37
2018-11-26T18:40:39.392Z,18.47
2018-11-26T18:43:08.533Z,19.40
2018-11-26T18:45:37.749Z,20.23
2018-11-26T18:48:07.025Z,15.37
2018-11-26T18:50:35.410Z,15.43
2018-11-26T18:53:03.776Z,15.47
2018-11-26T18:55:32.129Z,16.20
2018-11-26T18:58:00.474Z,16.77
2018-11-26T19:00:32.880Z,16.20
2018-11-26T19:03:01.300Z,15.80
2018-11-26T19:05:29.691Z,17.90
2018-11-26T19:07:58.067Z,18.20
2018-11-26T19:10:28.850Z,16.63
2018-11-26T19:13:14.511Z,15.33
2018-11-26T19:15:45.904Z,16.43
2018-11-26T19:18:23.463Z,14.57
2018-11-26T19:20:52.251Z,16.70
2018-11-26T19:23:20.736Z,17.80
2018-11-26T19:25:51.138Z,16.73
2018-11-26T19:28:20.539Z,27.27
2018-11-26T19:30:47.860Z,18.77
2018-11-26T19:33:16.242Z,20.47
2018-11-26T19:35:44.605Z,20.40
2018-11-26T19:38:13.009Z,23.87
2018-11-26T19:40:41.474Z,14.83
2018-11-26T19:43:09.952Z,18.03
2018-11-26T19:45:38.371Z,16.90
2018-11-26T19:48:07.651Z,17.57
2018-11-26T19:50:36.049Z,16.70
2018-11-26T19:53:06.205Z,22.73
2018-11-26T19:55:34.637Z,23.13
2018-11-26T19:58:03.106Z,20.23
2018-11-26T20:00:31.591Z,17.87
2018-11-26T20:03:10.355Z,19.67
2018-11-26T20:05:45.784Z,16.90
2018-11-26T20:08:14.184Z,20.53
2018-11-26T20:10:42.581Z,17.43
2018-11-26T20:13:10.944Z,15.90
2018-11-26T20:15:39.346Z,17.47
2018-11-26T20:18:07.850Z,16.80
2018-11-26T20:20:36.309Z,18.20
2018-11-26T20:23:04.691Z,18.10
2018-11-26T20:25:33.086Z,18.20
2018-11-26T20:28:02.048Z,17.20
2018-11-26T20:30:30.425Z,15.27
2018-11-26T20:32:59.147Z,17.43
2018-11-26T20:35:27.681Z,16.73
2018-11-26T20:37:56.006Z,16.60
2018-11-26T20:40:24.396Z,16.00
2018-11-26T20:42:54.470Z,16.17
2018-11-26T20:45:22.856Z,16.73
2018-11-26T20:47:52.238Z,16.07
2018-11-26T20:50:25.710Z,17.13
2018-11-26T20:52:54.196Z,17.77
2018-11-26T20:55:23.921Z,18.70
2018-11-26T20:57:53.457Z,17.03
2018-11-26T21:00:23.162Z,18.37
2018-11-26T21:02:53.237Z,16.97
2018-11-26T21:05:21.641Z,16.60
2018-11-26T21:07:50.139Z,16.20
2018-11-26T21:10:18.604Z,16.33
2018-11-26T21:12:48.015Z,15.07
2018-11-26T21:15:17.775Z,19.00
2018-11-26T21:17:48.597Z,17.90
2018-11-26T21:20:54.846Z,16.67
2018-11-26T21:23:25.859Z,18.03
2018-11-26T21:25:55.437Z,16.77
2018-11-26T21:28:23.890Z,18.23
2018-11-26T21:30:52.419Z,17.40
2018-11-26T21:33:21.982Z,16.33
2018-11-26T21:35:50.445Z,17.70
2018-11-26T21:38:18.921Z,18.40
2018-11-26T21:40:47.359Z,17.90
2018-11-26T21:43:15.927Z,18.10
2018-11-26T21:45:50.288Z,18.10
2018-11-26T21:48:19.521Z,16.00
2018-11-26T21:50:48.047Z,17.10
2018-11-26T21:53:16.525Z,17.00
2018-11-26T21:55:44.924Z,17.90
2018-11-26T21:58:13.412Z,17.83
2018-11-26T22:00:42.227Z,18.07
2018-11-26T22:03:11.712Z,15.73
2018-11-26T22:05:41.142Z,17.00
2018-11-26T22:08:10.275Z,14.30
2018-11-26T22:10:39.798Z,14.33
2018-11-26T22:13:10.460Z,15.90
2018-11-26T22:15:38.890Z,15.30
2018-11-26T22:18:07.831Z,14.67
2018-11-26T22:20:36.259Z,14.67
2018-11-26T22:23:04.979Z,13.63
2018-11-26T22:25:33.417Z,14.50
2018-11-26T22:28:01.797Z,14.60
2018-11-26T22:30:32.192Z,13.70
2018-11-26T22:33:00.683Z,13.50
2018-11-26T22:35:29.112Z,14.50
2018-11-26T22:37:58.145Z,13.37
2018-11-26T22:40:27.327Z,14.47
2018-11-26T22:42:55.737Z,12.97
2018-11-26T22:45:30.634Z,13.43
2018-11-26T22:48:02.529Z,12.30
2018-11-26T22:50:32.320Z,13.77
2018-11-26T22:53:00.212Z,13.70
2018-11-26T22:55:28.596Z,12.80
2018-11-26T22:57:57.107Z,13.80
2018-11-26T23:00:35.279Z,13.40
2018-11-26T23:03:04.457Z,14.20
2018-11-26T23:05:32.885Z,13.50
2018-11-26T23:08:01.343Z,12.20
2018-11-26T23:10:29.684Z,13.97
2018-11-26T23:12:58.105Z,13.47
2018-11-26T23:15:26.534Z,15.03
2018-11-26T23:17:54.870Z,14.60
2018-11-26T23:20:23.257Z,13.67
2018-11-26T23:22:51.685Z,14.50
2018-11-26T23:25:20.600Z,13.00
2018-11-26T23:27:48.977Z,13.03
2018-11-26T23:30:20.074Z,13.30
2018-11-26T23:32:50.580Z,13.60
2018-11-26T23:35:22.328Z,12.20
2018-11-26T23:37:51.355Z,12.60
2018-11-26T23:40:19.716Z,12.50
2018-11-26T23:42:48.068Z,13.17
2018-11-26T23:45:17.283Z,13.23
2018-11-26T23:47:45.652Z,13.87
2018-11-26T23:50:15.874Z,14.17
2018-11-26T23:52:44.375Z,13.03
2018-11-26T23:55:13.632Z,13.60
2018-11-26T23:57:41.975Z,14.00
